Lake Village, IN

7:22 PM CDT on August 21, 2014 (GMT -0500)
Lincoln Township | Change Station
CLOSE
Current Station
Personal Weather Station
Location: Lake Village, IN
Elevation: 692 ft
Nearby Weather Stations

Elev 692 ft 41.13 °N, 87.35 °W | Updated 0 second ago

Rain
Rain
74.5 °F
Feels Like 74 °F
N
0.0
Wind Variable Wind from North
Gusts 0.0 mph

Today
High -- | Low -- °F
--% Chance of Precip.
Yesterday
High -- | Low -- °F
Precip. -- in
6:05 AM 7:39 PM
Waning Crescent, 11% visible
Pressure 29.94 in
Visibility 10.0 miles
Clouds Scattered Clouds 3700 ft
Scattered Clouds 4600 ft
Mostly Cloudy 6000 ft
Heat Index 74 °F
Dew Point 70 °F
Humidity 86%
Rainfall 0.20 in
Snow Depth Not available.
UV 0 out of 12
Pollen 5.80 out of 12
Air Quality Not available.
Flu Activity Not available.
METAR KRZL 220015Z AUTO 08005KT 10SM VCTS SCT037 SCT046 BKN060 22/22 A2994 RMK AO2 LTG DSNT NE THRU S

More Conditions Fewer Conditions

Pressure 29.94 in
Visibility 10.0 miles
Clouds Scattered Clouds 3700 ft
Scattered Clouds 4600 ft
Mostly Cloudy 6000 ft
Heat Index 74 °F
Dew Point 70 °F
Humidity 86%
Rainfall 0.20 in
Snow Depth Not available.
UV 0 out of 12
Pollen 5.80 out of 12
Air Quality Not available.
Flu Activity Not available.
METAR KRZL 220015Z AUTO 08005KT 10SM VCTS SCT037 SCT046 BKN060 22/22 A2994 RMK AO2 LTG DSNT NE THRU S

More Conditions Fewer Conditions

10-Day Weather Forecast

Almanac

Astronomy

Aug. 21, 2014 Rise Set
Actual Time 6:05 AM CDT 7:39 PM CDT
Civil Twilight 5:36 AM CDT 8:08 PM CDT
Nautical Twilight 5:01 AM CDT 8:43 PM CDT
Astronomical Twilight 4:23 AM CDT 9:20 PM CDT
Moon 2:34 AM CDT (8/21) 5:09 PM CDT (8/21)
Length of Visible Light 14h 32m
Length of Day
13h 34m
Tomorrow will be 2m 31s shorter.
Waning Crescent, 11% of the Moon is Illuminated
Today
Waning Crescent
Aug 25
New
Sep 2
First Quarter
Sep 8
Full
Sep 15
Last Quarter

Today's Extremes

State Highs State Lows

Community

WunderPhotos

Upload Photos

1,746,075 photos uploaded!

Nearby

Snow Depth

Station Depth Elevation
No new snow has been reported.

Earthquake Activity

City Distance Mag. Time & Date
No recent earthquake activity has been reported nearby.
Minimum magnitude displayed is 2.5.

Coastal Water Temperatures

Place Temperature
No Stations Reporting

Nearby Weather Stations